Aérodrome :
LOGIN :

S'inscrire | Disclaimer

   EN    FR    IT 

 










Légende :    VFR   VFR Marginal   IFR   IFR Intensif   IFR Très Intensif
Visi : 
Plafond : 
>= 8 km
>= 3000ft
5 à 8 km
1000 à 3000 ft
1500m à 5 km
500 à 1000 ft
800 à 1500m
200 à 500 ft
< 800m
< 200 ft
Symboles :   Orages  Brouillard  Fortes neiges  Fortes précipitations  Vent > 20 kt
SIGMETs :   Divers  Orages  Givrage  Turbulence  Onde Orograph.  Cendres Volcan.







- Altitude de l'aérodrome : 2001 ft
- Code IATA : MAD


LEMD - Madrid

DERNIER METAR :
  • 231630Z VRB02KT CAVOK 22/M00 Q1025 NOSIG

METARs EXPIRÉS :
  • 231600Z 00000KT CAVOK 24/M00 Q1025 NOSIG
  • 231530Z 25002KT CAVOK 23/M01 Q1025 NOSIG
  • 231500Z VRB02KT CAVOK 22/M00 Q1025 NOSIG
  • 231430Z 30003KT 230V340 CAVOK 22/00 Q1025 NOSIG
  • 231400Z 22001KT CAVOK 22/02 Q1026 NOSIG

TAF TAF LEMD
Valide du 23 à 12h jusqu'au 24 à 18h UTC


231100Z 2312/2418 VRB04KT CAVOK TX24/2415Z TN06/2407Z
Pas de NOTAMs connus pour ce terrain.



MET'MAP, la Météo Aéronautique d'un coup d'oeil ! - Copyright ORBIFLY Décembre 2007 - Disclaimer

ORBIFLY MET'MAP TEAM :

Programmation & Développement : Alexandra Zaïnal
Conception & Développement : Baudouin d'Aumeries
Co-Programmation & Développement : Marc-Olivier Méhu
Soutien technique & logistique : Manuel Goepfert

Contact : metmap@orbifly.com




SOURCES & CREDITS :

   NOAA